Time;durP1;ratioP1;P1;durP2;ratioP2;P2;SDS_P1;SDS_P2;PMS_P1;PMS_P2;Temp;Humidity;BMP_temperature;BMP_pressure;BME280_temperature;BME280_humidity;BME280_pressure;Samples;Min_cycle;Max_cycle;Signal;HPM_P1;HPM_P2
2023/12/14 00:01:31;;;;;;;22.37;20.40;;;;;;;;;;5013065;28;20525;-40
2023/12/14 00:03:58;;;;;;;24.30;21.87;;;;;;;;;;5012776;28;20523;-40
2023/12/14 00:06:26;;;;;;;23.00;20.90;;;;;;;;;;5012408;28;20459;-39
2023/12/14 00:08:54;;;;;;;23.13;21.03;;;;;;;;;;4994466;28;20540;-41
2023/12/14 00:11:21;;;;;;;23.37;21.07;;;;;;;;;;4993510;28;20852;-39
2023/12/14 00:13:51;;;;;;;23.30;21.03;;;;;;;;;;4993185;28;20617;-39
2023/12/14 00:16:18;;;;;;;21.40;19.50;;;;;;;;;;4993013;28;20549;-39
2023/12/14 00:18:46;;;;;;;22.77;20.57;;;;;;;;;;5008314;28;20472;-38
2023/12/14 00:21:14;;;;;;;21.03;19.00;;;;;;;;;;5012460;28;20923;-39
2023/12/14 00:23:41;;;;;;;22.27;20.17;;;;;;;;;;5012247;28;20465;-39
2023/12/14 00:26:09;;;;;;;22.80;20.60;;;;;;;;;;5012255;28;20464;-39
2023/12/14 00:28:36;;;;;;;22.43;20.37;;;;;;;;;;4996585;28;20464;-41
2023/12/14 00:31:06;;;;;;;19.73;18.03;;;;;;;;;;4992841;28;20434;-40
2023/12/14 00:33:33;;;;;;;21.47;19.20;;;;;;;;;;4992681;28;20862;-41
2023/12/14 00:36:01;;;;;;;21.57;19.77;;;;;;;;;;4992195;28;20492;-42
2023/12/14 00:38:28;;;;;;;23.87;21.00;;;;;;;;;;5006837;28;20461;-39
2023/12/14 00:40:56;;;;;;;21.80;19.90;;;;;;;;;;5012130;28;20433;-39
2023/12/14 00:43:24;;;;;;;20.10;18.30;;;;;;;;;;5012159;28;20836;-39
2023/12/14 00:45:52;;;;;;;24.13;19.80;;;;;;;;;;5011731;28;20545;-41
2023/12/14 00:48:21;;;;;;;21.53;19.40;;;;;;;;;;4998423;28;20535;-42
2023/12/14 00:50:49;;;;;;;20.07;18.23;;;;;;;;;;4992634;28;20504;-42
2023/12/14 00:53:16;;;;;;;21.33;19.63;;;;;;;;;;4992574;28;20449;-41
2023/12/14 00:55:45;;;;;;;23.37;21.10;;;;;;;;;;4992072;28;20538;-42
2023/12/14 00:58:13;;;;;;;22.00;19.73;;;;;;;;;;5004555;28;20511;-42
2023/12/14 01:00:41;;;;;;;21.80;19.60;;;;;;;;;;5011718;28;20484;-38
2023/12/14 01:03:08;;;;;;;22.67;20.67;;;;;;;;;;5012046;28;20525;-40
2023/12/14 01:05:37;;;;;;;20.70;18.70;;;;;;;;;;5011378;28;20485;-43
2023/12/14 01:08:05;;;;;;;22.90;20.77;;;;;;;;;;5000177;28;20466;-42
2023/12/14 01:10:33;;;;;;;21.23;19.00;;;;;;;;;;4992298;28;20434;-41
2023/12/14 01:13:01;;;;;;;22.57;18.90;;;;;;;;;;4991913;28;20517;-39
2023/12/14 01:15:29;;;;;;;20.20;18.20;;;;;;;;;;4992062;28;20438;-39
2023/12/14 01:17:56;;;;;;;21.00;19.00;;;;;;;;;;5001718;28;20544;-39
2023/12/14 01:20:24;;;;;;;19.83;18.20;;;;;;;;;;5011791;28;20433;-41
2023/12/14 01:22:53;;;;;;;20.60;18.90;;;;;;;;;;5011806;28;20473;-43
2023/12/14 01:25:21;;;;;;;21.57;19.27;;;;;;;;;;5011364;28;20472;-41
2023/12/14 01:27:48;;;;;;;20.63;19.03;;;;;;;;;;5002054;28;20462;-40
2023/12/14 01:30:16;;;;;;;20.60;18.53;;;;;;;;;;4991942;28;20525;-39
2023/12/14 01:32:43;;;;;;;21.00;18.90;;;;;;;;;;4991904;28;20484;-38
2023/12/14 01:35:11;;;;;;;21.60;19.47;;;;;;;;;;4991915;28;20438;-39
2023/12/14 01:37:39;;;;;;;19.77;18.10;;;;;;;;;;4999309;28;20465;-39
2023/12/14 01:40:09;;;;;;;20.27;18.20;;;;;;;;;;5011634;28;20444;-39
2023/12/14 01:42:36;;;;;;;25.77;21.33;;;;;;;;;;5011338;28;20475;-40
2023/12/14 01:45:05;;;;;;;23.70;21.27;;;;;;;;;;5011023;28;20972;-39
2023/12/14 01:47:32;;;;;;;21.37;19.57;;;;;;;;;;5005606;28;20476;-40
2023/12/14 01:50:00;;;;;;;22.03;20.20;;;;;;;;;;4995765;28;20546;-39
2023/12/14 01:52:28;;;;;;;22.53;20.33;;;;;;;;;;4995893;28;20434;-40
2023/12/14 01:54:58;;;;;;;23.10;21.07;;;;;;;;;;4995138;28;20853;-39
2023/12/14 01:57:27;;;;;;;21.03;19.30;;;;;;;;;;5001519;28;21089;-40
2023/12/14 01:59:55;;;;;;;20.70;18.70;;;;;;;;;;5015174;28;20445;-39
2023/12/14 02:02:22;;;;;;;20.23;18.33;;;;;;;;;;5015330;28;20443;-39
2023/12/14 02:04:50;;;;;;;19.47;17.60;;;;;;;;;;5014619;28;20473;-42
2023/12/14 02:07:18;;;;;;;20.67;18.57;;;;;;;;;;5009792;28;20470;-38
2023/12/14 02:09:45;;;;;;;20.37;18.53;;;;;;;;;;4995265;28;20438;-38
2023/12/14 02:12:13;;;;;;;21.03;19.03;;;;;;;;;;4995583;28;20434;-42
2023/12/14 02:14:42;;;;;;;20.63;18.20;;;;;;;;;;4995502;28;20434;-38
2023/12/14 02:17:10;;;;;;;20.07;17.97;;;;;;;;;;4998508;28;20551;-39
2023/12/14 02:19:37;;;;;;;20.40;18.40;;;;;;;;;;5014982;28;20944;-39
2023/12/14 02:22:05;;;;;;;18.73;17.13;;;;;;;;;;5014554;28;20472;-39
2023/12/14 02:24:34;;;;;;;20.97;17.40;;;;;;;;;;5014737;28;20440;-40
2023/12/14 02:27:02;;;;;;;21.20;17.40;;;;;;;;;;5010938;28;21227;-40
2023/12/14 02:29:30;;;;;;;19.70;17.87;;;;;;;;;;4995138;28;20787;-39
2023/12/14 02:31:58;;;;;;;19.17;17.33;;;;;;;;;;4994970;28;20883;-40
2023/12/14 02:34:26;;;;;;;20.07;18.20;;;;;;;;;;4994879;28;20469;-39
2023/12/14 02:36:53;;;;;;;19.87;18.00;;;;;;;;;;4995971;28;20540;-39
2023/12/14 02:39:21;;;;;;;18.70;17.27;;;;;;;;;;5014771;28;20866;-39
2023/12/14 02:41:50;;;;;;;19.37;17.57;;;;;;;;;;5014274;28;20522;-41
2023/12/14 02:44:17;;;;;;;20.10;18.40;;;;;;;;;;5014394;28;20433;-38
2023/12/14 02:46:45;;;;;;;20.47;18.57;;;;;;;;;;5013258;28;20851;-38
2023/12/14 02:49:13;;;;;;;19.17;17.57;;;;;;;;;;4986809;28;20433;-41
2023/12/14 02:51:40;;;;;;;18.80;16.80;;;;;;;;;;4994880;28;20438;-39
2023/12/14 02:54:08;;;;;;;20.83;18.77;;;;;;;;;;4994620;28;20438;-42
2023/12/14 02:56:35;;;;;;;18.13;16.33;;;;;;;;;;4994412;28;20466;-40
2023/12/14 02:59:04;;;;;;;20.10;18.50;;;;;;;;;;5013031;28;20549;-39
2023/12/14 03:01:32;;;;;;;22.03;20.00;;;;;;;;;;5014011;28;20976;-42
2023/12/14 03:03:59;;;;;;;20.53;18.63;;;;;;;;;;5013745;28;20996;-40
2023/12/14 03:06:27;;;;;;;19.20;17.50;;;;;;;;;;5013789;28;20568;-39
2023/12/14 03:08:55;;;;;;;19.03;17.23;;;;;;;;;;4994822;28;20466;-40
2023/12/14 03:11:23;;;;;;;18.63;16.93;;;;;;;;;;4994266;28;20438;-39
2023/12/14 03:13:50;;;;;;;19.20;17.37;;;;;;;;;;4994118;28;20434;-43
2023/12/14 03:16:20;;;;;;;19.97;17.83;;;;;;;;;;4993865;28;20458;-41
2023/12/14 03:18:52;;;;;;;20.93;18.87;;;;;;;;;;5010825;28;20461;-39
2023/12/14 03:21:19;;;;;;;19.27;17.67;;;;;;;;;;5013789;28;20520;-40
2023/12/14 03:23:47;;;;;;;20.27;18.33;;;;;;;;;;5013834;28;20470;-39
2023/12/14 03:26:15;;;;;;;20.50;18.70;;;;;;;;;;5005367;28;20859;-39
2023/12/14 03:28:42;;;;;;;22.40;20.10;;;;;;;;;;4996970;28;20876;-39
2023/12/14 03:31:11;;;;;;;20.50;18.80;;;;;;;;;;4994015;28;20449;-39
2023/12/14 03:33:40;;;;;;;19.70;18.20;;;;;;;;;;4993877;28;20933;-39
2023/12/14 03:36:08;;;;;;;21.37;18.30;;;;;;;;;;4993500;28;20458;-39
2023/12/14 03:38:35;;;;;;;20.13;18.37;;;;;;;;;;5008953;28;20494;-39
2023/12/14 03:41:03;;;;;;;19.37;17.17;;;;;;;;;;5013202;28;20991;-38
2023/12/14 03:43:30;;;;;;;19.03;17.33;;;;;;;;;;5013515;28;20437;-39
2023/12/14 03:45:58;;;;;;;19.17;17.73;;;;;;;;;;5012991;28;20477;-39
2023/12/14 03:48:26;;;;;;;18.70;16.97;;;;;;;;;;4998901;28;20513;-38
2023/12/14 03:50:54;;;;;;;19.43;17.60;;;;;;;;;;4993437;28;20994;-40
2023/12/14 03:53:22;;;;;;;19.07;17.47;;;;;;;;;;4993679;28;20485;-39
2023/12/14 03:55:50;;;;;;;22.10;20.10;;;;;;;;;;4993005;28;20497;-39
2023/12/14 03:58:17;;;;;;;20.23;18.23;;;;;;;;;;4986633;28;20901;-44
2023/12/14 04:00:45;;;;;;;20.73;18.57;;;;;;;;;;4993443;28;20922;-41
2023/12/14 04:03:13;;;;;;;22.00;20.00;;;;;;;;;;4993433;28;20430;-39
2023/12/14 04:05:40;;;;;;;18.63;16.97;;;;;;;;;;4992977;28;20568;-41
2023/12/14 04:08:09;;;;;;;18.77;17.07;;;;;;;;;;5004351;28;20538;-40
2023/12/14 04:10:37;;;;;;;19.30;17.40;;;;;;;;;;5012419;28;20448;-40
2023/12/14 04:13:05;;;;;;;19.60;17.60;;;;;;;;;;5012612;28;20491;-41
2023/12/14 04:15:32;;;;;;;17.27;15.87;;;;;;;;;;5012520;28;20925;-40
2023/12/14 04:18:00;;;;;;;17.60;16.03;;;;;;;;;;5012161;28;20540;-42
2023/12/14 04:20:27;;;;;;;18.23;16.63;;;;;;;;;;5012571;28;20533;-39
2023/12/14 04:22:55;;;;;;;20.80;18.60;;;;;;;;;;5012410;28;20527;-39
2023/12/14 04:25:24;;;;;;;17.73;16.13;;;;;;;;;;5012502;28;20441;-39
2023/12/14 04:27:52;;;;;;;21.63;19.40;;;;;;;;;;5012314;28;20555;-41
2023/12/14 04:30:19;;;;;;;19.17;16.90;;;;;;;;;;5012692;28;20465;-40
2023/12/14 04:32:47;;;;;;;20.20;18.47;;;;;;;;;;5012445;28;20449;-40
2023/12/14 04:35:15;;;;;;;18.50;16.80;;;;;;;;;;5011934;28;20809;-39
2023/12/14 04:37:43;;;;;;;20.03;18.40;;;;;;;;;;5011992;28;20469;-40
2023/12/14 04:40:11;;;;;;;18.53;16.93;;;;;;;;;;5012446;28;20531;-39
2023/12/14 04:42:40;;;;;;;20.03;18.33;;;;;;;;;;5011190;28;20945;-39
2023/12/14 04:45:08;;;;;;;20.57;18.77;;;;;;;;;;5011623;28;20507;-41
2023/12/14 04:47:36;;;;;;;20.00;18.50;;;;;;;;;;5010011;28;20473;-41
2023/12/14 04:50:04;;;;;;;19.13;17.53;;;;;;;;;;5011980;28;20434;-40
2023/12/14 04:52:32;;;;;;;16.90;15.40;;;;;;;;;;5012134;28;20437;-43
2023/12/14 04:55:00;;;;;;;18.47;16.77;;;;;;;;;;5011696;28;20466;-40
2023/12/14 04:57:28;;;;;;;20.27;18.57;;;;;;;;;;5011724;28;20473;-42
2023/12/14 04:59:57;;;;;;;18.90;17.40;;;;;;;;;;5011956;28;20508;-39
2023/12/14 05:02:25;;;;;;;21.97;19.73;;;;;;;;;;5011752;28;20433;-40
2023/12/14 05:04:52;;;;;;;20.03;18.57;;;;;;;;;;5011731;28;20433;-39
2023/12/14 05:07:20;;;;;;;18.57;17.00;;;;;;;;;;5003379;28;20475;-40
2023/12/14 05:09:48;;;;;;;20.87;19.07;;;;;;;;;;5011917;28;20433;-42
2023/12/14 05:12:15;;;;;;;19.63;17.70;;;;;;;;;;5011755;28;20469;-40
2023/12/14 05:14:43;;;;;;;20.10;18.30;;;;;;;;;;5011656;28;20496;-39
2023/12/14 05:17:12;;;;;;;18.47;17.07;;;;;;;;;;5011244;28;20465;-40
2023/12/14 05:19:39;;;;;;;18.53;16.93;;;;;;;;;;5011921;28;20793;-39
2023/12/14 05:22:07;;;;;;;18.23;16.33;;;;;;;;;;5010473;28;20528;-39
2023/12/14 05:24:35;;;;;;;17.50;16.13;;;;;;;;;;5011759;28;20504;-40
2023/12/14 05:27:02;;;;;;;17.97;16.27;;;;;;;;;;5011038;28;20465;-43
2023/12/14 05:29:31;;;;;;;19.60;18.03;;;;;;;;;;5011497;28;20460;-40
2023/12/14 05:31:58;;;;;;;19.20;17.50;;;;;;;;;;5011741;28;20440;-39
2023/12/14 05:34:28;;;;;;;18.10;16.67;;;;;;;;;;5011545;28;20940;-40
2023/12/14 05:36:55;;;;;;;17.87;16.37;;;;;;;;;;5011164;28;20457;-39
2023/12/14 05:39:23;;;;;;;19.87;18.37;;;;;;;;;;5011841;28;20441;-39
2023/12/14 05:41:50;;;;;;;19.63;18.17;;;;;;;;;;5011654;28;20437;-41
2023/12/14 05:44:18;;;;;;;18.77;17.37;;;;;;;;;;5011305;28;20778;-39
2023/12/14 05:46:46;;;;;;;21.17;19.57;;;;;;;;;;5010842;28;20969;-41
2023/12/14 05:49:13;;;;;;;21.77;19.83;;;;;;;;;;5011594;28;20873;-39
2023/12/14 05:51:42;;;;;;;21.00;19.20;;;;;;;;;;5011498;28;20437;-43
2023/12/14 05:54:10;;;;;;;20.50;18.80;;;;;;;;;;5011295;28;20527;-39
2023/12/14 05:56:37;;;;;;;19.77;17.97;;;;;;;;;;5010839;28;20465;-40
2023/12/14 05:59:07;;;;;;;18.80;16.90;;;;;;;;;;5011208;28;20465;-39
2023/12/14 06:01:35;;;;;;;19.63;18.33;;;;;;;;;;5011257;28;20452;-41
2023/12/14 06:04:03;;;;;;;19.30;17.40;;;;;;;;;;5011458;28;20437;-39
2023/12/14 06:06:31;;;;;;;17.47;16.17;;;;;;;;;;5010998;28;20457;-41
2023/12/14 06:08:59;;;;;;;18.10;16.70;;;;;;;;;;5011026;28;21016;-39
2023/12/14 06:11:27;;;;;;;19.30;17.47;;;;;;;;;;5011376;28;20441;-40
2023/12/14 06:13:55;;;;;;;18.80;17.17;;;;;;;;;;5011442;28;20437;-40
2023/12/14 06:16:23;;;;;;;19.70;18.20;;;;;;;;;;5010694;28;20546;-42
2023/12/14 06:18:50;;;;;;;19.87;18.23;;;;;;;;;;5010726;28;20472;-40
2023/12/14 06:21:18;;;;;;;20.83;18.77;;;;;;;;;;5010775;28;20448;-40
2023/12/14 06:23:46;;;;;;;21.13;19.23;;;;;;;;;;5011016;28;20443;-39
2023/12/14 06:26:18;;;;;;;20.40;18.60;;;;;;;;;;5010784;28;20972;-38
2023/12/14 06:28:45;;;;;;;19.37;17.67;;;;;;;;;;5010593;28;20465;-39
2023/12/14 06:31:14;;;;;;;20.50;18.70;;;;;;;;;;5011033;28;20491;-39
2023/12/14 06:33:42;;;;;;;20.60;18.83;;;;;;;;;;5012691;28;20441;-41
2023/12/14 06:36:10;;;;;;;19.20;17.40;;;;;;;;;;5014053;28;20825;-39
2023/12/14 06:38:39;;;;;;;19.80;17.80;;;;;;;;;;5014169;28;20460;-41
2023/12/14 06:41:06;;;;;;;18.20;16.57;;;;;;;;;;5014594;28;20471;-38
2023/12/14 06:43:35;;;;;;;19.00;17.10;;;;;;;;;;5014528;28;20487;-39
2023/12/14 06:46:03;;;;;;;19.20;17.70;;;;;;;;;;5014129;28;20976;-41
2023/12/14 06:48:31;;;;;;;17.50;15.97;;;;;;;;;;5013822;28;20461;-39
2023/12/14 06:50:58;;;;;;;19.30;17.60;;;;;;;;;;5014214;28;20433;-39
2023/12/14 06:53:26;;;;;;;19.53;17.93;;;;;;;;;;5014204;28;20943;-41
2023/12/14 06:55:54;;;;;;;19.73;18.13;;;;;;;;;;5013868;28;20864;-39
2023/12/14 06:58:21;;;;;;;19.40;17.60;;;;;;;;;;5013628;28;21279;-42
2023/12/14 07:00:50;;;;;;;17.90;16.60;;;;;;;;;;5014372;28;20869;-40
2023/12/14 07:03:18;;;;;;;19.03;17.53;;;;;;;;;;5013880;28;20949;-41
2023/12/14 07:05:45;;;;;;;18.40;16.70;;;;;;;;;;5013872;28;21080;-39
2023/12/14 07:08:13;;;;;;;18.63;16.83;;;;;;;;;;5013564;28;20469;-41
2023/12/14 07:10:42;;;;;;;17.60;16.17;;;;;;;;;;5014120;28;20437;-43
2023/12/14 07:13:09;;;;;;;18.53;16.63;;;;;;;;;;5013925;28;20468;-40
2023/12/14 07:15:37;;;;;;;18.77;17.10;;;;;;;;;;5013677;28;20834;-39
2023/12/14 07:18:06;;;;;;;19.80;18.10;;;;;;;;;;5013295;28;20469;-39
2023/12/14 07:20:34;;;;;;;18.30;16.60;;;;;;;;;;5013974;28;20469;-39
2023/12/14 07:23:01;;;;;;;19.60;17.97;;;;;;;;;;5013797;28;20441;-39
2023/12/14 07:25:29;;;;;;;18.27;16.63;;;;;;;;;;5013440;28;20444;-39
2023/12/14 07:27:57;;;;;;;20.67;18.97;;;;;;;;;;5013365;28;20497;-39
2023/12/14 07:30:24;;;;;;;18.97;17.50;;;;;;;;;;5013395;28;20479;-40
2023/12/14 07:32:52;;;;;;;20.93;18.93;;;;;;;;;;5013657;28;20438;-39
2023/12/14 07:35:21;;;;;;;20.17;18.60;;;;;;;;;;5013053;28;20491;-40
2023/12/14 07:37:48;;;;;;;19.93;17.87;;;;;;;;;;5013181;28;21066;-40
2023/12/14 07:40:16;;;;;;;19.60;17.93;;;;;;;;;;5013465;28;20837;-39
2023/12/14 07:42:44;;;;;;;19.13;17.57;;;;;;;;;;5013364;28;20503;-39
2023/12/14 07:45:11;;;;;;;19.83;17.93;;;;;;;;;;5012315;28;20839;-40
2023/12/14 07:47:39;;;;;;;20.23;18.43;;;;;;;;;;5012774;28;20468;-39
2023/12/14 07:50:07;;;;;;;21.80;19.70;;;;;;;;;;5013318;28;20832;-39
2023/12/14 07:52:36;;;;;;;20.20;18.60;;;;;;;;;;5013305;28;20528;-39
2023/12/14 07:55:05;;;;;;;20.80;19.07;;;;;;;;;;5012839;28;20955;-39
2023/12/14 07:57:32;;;;;;;21.93;19.83;;;;;;;;;;5012576;28;20465;-40
2023/12/14 08:00:00;;;;;;;21.57;19.77;;;;;;;;;;5013286;28;20444;-41
2023/12/14 08:02:27;;;;;;;20.60;18.73;;;;;;;;;;5013128;28;20436;-40
2023/12/14 08:04:55;;;;;;;19.70;18.00;;;;;;;;;;5012820;28;20441;-39
2023/12/14 08:07:23;;;;;;;18.67;16.87;;;;;;;;;;5012377;28;20511;-39
2023/12/14 08:09:52;;;;;;;19.70;17.70;;;;;;;;;;5012917;28;20453;-39
2023/12/14 08:12:21;;;;;;;19.57;17.73;;;;;;;;;;5012893;28;20441;-39
2023/12/14 08:14:48;;;;;;;20.90;18.87;;;;;;;;;;5012746;28;20441;-40
2023/12/14 08:17:16;;;;;;;20.30;18.60;;;;;;;;;;5012091;28;20541;-40
2023/12/14 08:19:44;;;;;;;20.87;18.90;;;;;;;;;;5012730;28;20429;-39
2023/12/14 08:22:12;;;;;;;20.67;19.07;;;;;;;;;;5012465;28;20495;-39
2023/12/14 08:24:40;;;;;;;21.70;19.80;;;;;;;;;;5012392;28;20437;-39
2023/12/14 08:27:09;;;;;;;20.10;18.20;;;;;;;;;;5012180;28;20465;-41
2023/12/14 08:29:36;;;;;;;19.40;18.03;;;;;;;;;;5012589;28;20527;-40
2023/12/14 08:32:04;;;;;;;19.30;17.53;;;;;;;;;;5012316;28;20499;-39
2023/12/14 08:34:32;;;;;;;17.60;16.40;;;;;;;;;;5012058;28;20449;-38
2023/12/14 08:37:01;;;;;;;19.73;17.90;;;;;;;;;;5011834;28;20463;-39
2023/12/14 08:39:29;;;;;;;17.00;15.50;;;;;;;;;;5012335;28;21026;-39
2023/12/14 08:41:56;;;;;;;17.93;16.67;;;;;;;;;;5012438;28;20528;-40
2023/12/14 08:44:25;;;;;;;17.73;16.13;;;;;;;;;;5012266;28;20437;-39
2023/12/14 08:46:53;;;;;;;17.73;16.27;;;;;;;;;;5011491;28;20454;-45
2023/12/14 08:49:21;;;;;;;18.03;16.50;;;;;;;;;;5011937;28;20476;-40
2023/12/14 08:51:48;;;;;;;16.77;15.17;;;;;;;;;;5012434;28;20447;-38
2023/12/14 08:54:17;;;;;;;17.40;16.13;;;;;;;;;;5012008;28;20532;-40
2023/12/14 08:56:45;;;;;;;17.17;15.73;;;;;;;;;;5011219;28;20468;-39
2023/12/14 08:59:12;;;;;;;17.90;16.40;;;;;;;;;;5011986;28;20949;-38
2023/12/14 09:01:41;;;;;;;17.07;15.57;;;;;;;;;;5011878;28;20991;-39
2023/12/14 09:04:09;;;;;;;18.33;16.60;;;;;;;;;;5011883;28;21012;-38
2023/12/14 09:06:37;;;;;;;16.53;15.13;;;;;;;;;;5011953;28;20447;-42
2023/12/14 09:09:04;;;;;;;18.10;16.53;;;;;;;;;;5011297;28;21070;-39
2023/12/14 09:11:33;;;;;;;16.63;15.40;;;;;;;;;;5011671;28;20516;-40
2023/12/14 09:14:01;;;;;;;17.53;15.97;;;;;;;;;;5012107;28;20447;-39
2023/12/14 09:16:28;;;;;;;17.53;16.03;;;;;;;;;;5011259;28;20480;-42
2023/12/14 09:18:57;;;;;;;16.93;15.57;;;;;;;;;;5011308;28;20532;-40
2023/12/14 09:21:25;;;;;;;15.80;14.50;;;;;;;;;;5011886;28;20816;-40
2023/12/14 09:24:07;;;;;;;16.60;15.27;;;;;;;;;;5011920;28;20448;-40
2023/12/14 09:26:39;;;;;;;48.93;19.10;;;;;;;;;;5011533;28;20461;-40
2023/12/14 09:29:06;;;;;;;18.40;16.57;;;;;;;;;;5011171;28;20559;-40
2023/12/14 09:31:35;;;;;;;30.93;19.80;;;;;;;;;;5003768;28;20793;-41
2023/12/14 09:34:05;;;;;;;17.73;16.40;;;;;;;;;;5011990;28;20437;-40
2023/12/14 09:36:33;;;;;;;17.50;15.70;;;;;;;;;;5011271;28;20515;-39
2023/12/14 09:39:00;;;;;;;16.37;15.03;;;;;;;;;;5011346;28;21035;-40
2023/12/14 09:41:28;;;;;;;18.37;16.73;;;;;;;;;;5011340;28;20527;-40
2023/12/14 09:43:56;;;;;;;17.00;15.70;;;;;;;;;;5011892;28;20520;-42
2023/12/14 09:46:24;;;;;;;17.10;15.87;;;;;;;;;;5011126;28;20807;-38
2023/12/14 09:48:51;;;;;;;16.97;15.37;;;;;;;;;;5010648;28;20483;-40
2023/12/14 09:51:23;;;;;;;18.70;17.10;;;;;;;;;;5011401;28;20443;-39
2023/12/14 09:53:57;;;;;;;22.57;19.67;;;;;;;;;;5011498;28;20905;-42
2023/12/14 09:56:25;;;;;;;28.63;19.20;;;;;;;;;;5011021;28;20465;-39
2023/12/14 09:58:53;;;;;;;17.57;16.10;;;;;;;;;;5011040;28;20457;-39
2023/12/14 10:01:24;;;;;;;21.13;18.13;;;;;;;;;;5011265;28;20520;-39
2023/12/14 10:03:51;;;;;;;18.97;16.53;;;;;;;;;;5011374;28;20437;-39
2023/12/14 10:06:20;;;;;;;16.90;15.50;;;;;;;;;;5010935;28;20511;-40
2023/12/14 10:08:54;;;;;;;15.90;14.40;;;;;;;;;;5012592;28;20560;-39
2023/12/14 10:11:22;;;;;;;15.63;14.63;;;;;;;;;;5015081;28;20932;-39
2023/12/14 10:13:50;;;;;;;15.57;14.37;;;;;;;;;;5015111;28;20473;-40
2023/12/14 10:16:30;;;;;;;16.20;15.10;;;;;;;;;;5014548;28;21010;-40
2023/12/14 10:18:58;;;;;;;23.20;15.33;;;;;;;;;;5014558;28;20461;-40
2023/12/14 10:21:28;;;;;;;16.13;14.73;;;;;;;;;;5014930;28;20433;-39
2023/12/14 10:23:56;;;;;;;17.20;15.90;;;;;;;;;;5015128;28;20877;-39
2023/12/14 10:26:25;;;;;;;14.83;13.83;;;;;;;;;;5014598;28;20507;-40
2023/12/14 10:28:53;;;;;;;25.97;18.10;;;;;;;;;;5014187;28;20457;-39
2023/12/14 10:31:22;;;;;;;16.23;14.83;;;;;;;;;;5014411;28;20433;-39
2023/12/14 10:33:50;;;;;;;15.70;14.50;;;;;;;;;;5014925;28;20846;-40
2023/12/14 10:36:19;;;;;;;21.60;17.00;;;;;;;;;;5014515;28;20464;-39
2023/12/14 10:38:48;;;;;;;17.17;15.50;;;;;;;;;;5014184;28;20468;-39
2023/12/14 10:41:18;;;;;;;15.07;13.90;;;;;;;;;;5014326;28;20437;-39
2023/12/14 10:43:47;;;;;;;15.00;14.00;;;;;;;;;;5014589;28;20444;-40
2023/12/14 10:46:20;;;;;;;15.10;14.10;;;;;;;;;;5014421;28;20952;-41
2023/12/14 10:48:48;;;;;;;16.17;14.80;;;;;;;;;;5013978;28;20484;-39
2023/12/14 10:51:18;;;;;;;15.87;14.77;;;;;;;;;;5014508;28;20852;-39
2023/12/14 10:53:47;;;;;;;16.30;15.33;;;;;;;;;;5014387;28;20524;-42
2023/12/14 10:56:17;;;;;;;16.03;14.80;;;;;;;;;;5013883;28;21009;-40
2023/12/14 10:58:48;;;;;;;16.50;15.20;;;;;;;;;;5013926;28;20469;-40
2023/12/14 11:01:17;;;;;;;16.33;15.27;;;;;;;;;;5014444;28;20931;-40
2023/12/14 11:03:45;;;;;;;18.37;16.90;;;;;;;;;;5014408;28;20440;-39
2023/12/14 11:06:22;;;;;;;16.30;15.10;;;;;;;;;;5013993;28;20915;-39
2023/12/14 11:08:49;;;;;;;16.73;15.47;;;;;;;;;;4996587;28;20464;-40
2023/12/14 11:11:20;;;;;;;16.00;14.60;;;;;;;;;;4994882;28;20474;-40
2023/12/14 11:13:52;;;;;;;15.37;14.37;;;;;;;;;;4994260;28;20446;-39
2023/12/14 11:16:20;;;;;;;16.03;14.60;;;;;;;;;;4994118;28;20516;-40
2023/12/14 11:18:48;;;;;;;15.60;14.47;;;;;;;;;;5010991;28;20488;-39
2023/12/14 11:21:19;;;;;;;17.73;16.20;;;;;;;;;;5013798;28;20516;-38
2023/12/14 11:23:46;;;;;;;16.20;15.10;;;;;;;;;;5013770;28;20437;-40
2023/12/14 11:26:21;;;;;;;17.47;16.07;;;;;;;;;;5013725;28;20460;-40
2023/12/14 11:28:50;;;;;;;16.83;15.50;;;;;;;;;;4989261;28;21011;-39
2023/12/14 11:31:18;;;;;;;14.73;13.63;;;;;;;;;;4993983;28;20474;-42
2023/12/14 11:33:47;;;;;;;13.97;12.87;;;;;;;;;;4994198;28;20461;-40
2023/12/14 11:36:15;;;;;;;14.67;13.37;;;;;;;;;;4993836;28;20458;-40
2023/12/14 11:38:43;;;;;;;16.20;15.10;;;;;;;;;;5009522;28;20471;-39
2023/12/14 11:41:11;;;;;;;16.87;15.47;;;;;;;;;;5013606;28;20433;-40
2023/12/14 11:43:43;;;;;;;17.73;15.83;;;;;;;;;;5013762;28;20516;-41
2023/12/14 11:46:13;;;;;;;19.17;17.70;;;;;;;;;;5013150;28;20461;-40
2023/12/14 11:48:40;;;;;;;19.07;17.60;;;;;;;;;;5012920;28;20885;-39
2023/12/14 11:51:09;;;;;;;18.00;16.77;;;;;;;;;;5013398;28;20479;-40
2023/12/14 11:53:38;;;;;;;17.00;15.60;;;;;;;;;;5013342;28;20499;-39
2023/12/14 11:56:07;;;;;;;16.50;15.20;;;;;;;;;;5013104;28;20480;-41
2023/12/14 11:58:34;;;;;;;15.73;14.40;;;;;;;;;;5012633;28;20829;-40
2023/12/14 12:01:13;;;;;;;17.40;15.80;;;;;;;;;;5012850;28;20451;-40
2023/12/14 12:03:40;;;;;;;15.33;13.97;;;;;;;;;;5013419;28;20436;-39
2023/12/14 12:06:08;;;;;;;13.83;12.93;;;;;;;;;;5012771;28;20875;-40
2023/12/14 12:08:41;;;;;;;13.90;13.00;;;;;;;;;;5012521;28;20461;-39
2023/12/14 12:11:09;;;;;;;15.80;14.50;;;;;;;;;;5013014;28;20879;-40
2023/12/14 12:13:37;;;;;;;15.10;13.90;;;;;;;;;;5012751;28;20813;-43
2023/12/14 12:16:05;;;;;;;14.23;13.23;;;;;;;;;;5012712;28;21042;-41
2023/12/14 12:18:34;;;;;;;14.17;13.30;;;;;;;;;;5012359;28;20584;-39
2023/12/14 12:21:06;;;;;;;15.87;14.70;;;;;;;;;;5012840;28;20438;-41
2023/12/14 12:23:33;;;;;;;14.90;13.90;;;;;;;;;;5012886;28;20433;-40
2023/12/14 12:26:01;;;;;;;15.37;14.17;;;;;;;;;;5012408;28;20896;-40
2023/12/14 12:28:30;;;;;;;14.23;13.10;;;;;;;;;;5012183;28;20461;-39
2023/12/14 12:30:57;;;;;;;14.83;13.80;;;;;;;;;;5012213;28;20501;-40
2023/12/14 12:33:25;;;;;;;15.97;14.63;;;;;;;;;;5012690;28;20436;-40
2023/12/14 12:35:55;;;;;;;14.60;13.37;;;;;;;;;;5012327;28;20468;-39
2023/12/14 12:38:24;;;;;;;13.80;13.00;;;;;;;;;;5012155;28;20465;-39
2023/12/14 12:40:51;;;;;;;13.50;12.63;;;;;;;;;;5012652;28;20441;-39
2023/12/14 12:43:19;;;;;;;14.20;13.20;;;;;;;;;;5012555;28;20437;-39
2023/12/14 12:45:47;;;;;;;13.60;12.70;;;;;;;;;;5012222;28;20515;-39
2023/12/14 12:48:14;;;;;;;13.23;12.43;;;;;;;;;;5012040;28;20891;-39
2023/12/14 12:50:42;;;;;;;14.07;13.07;;;;;;;;;;5012136;28;20480;-39
2023/12/14 12:53:11;;;;;;;13.97;12.87;;;;;;;;;;5012181;28;20438;-40
2023/12/14 12:55:39;;;;;;;14.07;12.83;;;;;;;;;;5011810;28;22227;-39
2023/12/14 12:58:06;;;;;;;14.60;13.60;;;;;;;;;;5011388;28;20560;-40
2023/12/14 13:00:35;;;;;;;14.20;12.73;;;;;;;;;;5012102;28;20437;-39
2023/12/14 13:03:03;;;;;;;14.37;13.57;;;;;;;;;;5012094;28;20794;-41
2023/12/14 13:05:31;;;;;;;14.50;13.40;;;;;;;;;;5011696;28;20528;-41
2023/12/14 13:07:58;;;;;;;13.57;12.77;;;;;;;;;;5011616;28;21153;-39
2023/12/14 13:10:27;;;;;;;13.37;12.40;;;;;;;;;;5012035;28;20940;-39
2023/12/14 13:12:59;;;;;;;13.87;12.97;;;;;;;;;;5012096;28;20433;-40
2023/12/14 13:15:28;;;;;;;12.83;11.90;;;;;;;;;;5011454;28;20971;-40
2023/12/14 13:17:57;;;;;;;14.27;13.37;;;;;;;;;;5011383;28;20457;-38
2023/12/14 13:20:25;;;;;;;14.10;12.87;;;;;;;;;;5011609;28;21141;-39
2023/12/14 13:22:53;;;;;;;14.47;13.63;;;;;;;;;;5012053;28;20433;-42
2023/12/14 13:25:22;;;;;;;15.60;14.60;;;;;;;;;;5011389;28;20437;-41
2023/12/14 13:27:51;;;;;;;14.20;13.40;;;;;;;;;;5003593;28;20876;-43
2023/12/14 13:30:21;;;;;;;15.83;14.80;;;;;;;;;;5011677;28;20436;-40
2023/12/14 13:32:48;;;;;;;14.43;13.63;;;;;;;;;;5011298;28;20456;-41
2023/12/14 13:35:16;;;;;;;16.20;15.00;;;;;;;;;;5011750;28;20448;-40
2023/12/14 13:37:44;;;;;;;15.47;14.20;;;;;;;;;;5011352;28;20508;-39
2023/12/14 13:40:12;;;;;;;15.50;14.40;;;;;;;;;;5011451;28;20437;-39
2023/12/14 13:42:42;;;;;;;16.23;14.70;;;;;;;;;;5011541;28;20429;-39
2023/12/14 13:45:29;;;;;;;15.00;13.53;;;;;;;;;;5015298;28;20794;-39
2023/12/14 13:47:58;;;;;;;14.17;13.13;;;;;;;;;;5014739;28;20468;-40
2023/12/14 13:50:27;;;;;;;13.90;13.00;;;;;;;;;;5015723;28;20817;-39
2023/12/14 13:52:55;;;;;;;19.53;17.73;;;;;;;;;;5015615;28;20436;-39
2023/12/14 13:55:23;;;;;;;24.20;22.20;;;;;;;;;;5015173;28;20511;-42
2023/12/14 13:57:51;;;;;;;26.27;23.70;;;;;;;;;;5014893;28;20465;-39
2023/12/14 14:00:19;;;;;;;17.97;16.57;;;;;;;;;;5015612;28;20440;-40
2023/12/14 14:02:48;;;;;;;15.13;14.00;;;;;;;;;;5015293;28;20425;-39
2023/12/14 14:05:16;;;;;;;15.87;14.63;;;;;;;;;;5015309;28;20447;-40
2023/12/14 14:07:44;;;;;;;14.47;13.40;;;;;;;;;;5014916;28;20468;-41
2023/12/14 14:10:12;;;;;;;15.13;14.10;;;;;;;;;;5015236;28;20436;-39
2023/12/14 14:12:40;;;;;;;14.93;13.73;;;;;;;;;;5015109;28;20488;-40
2023/12/14 14:15:08;;;;;;;15.03;14.03;;;;;;;;;;5015097;28;20432;-41
2023/12/14 14:17:35;;;;;;;16.80;15.70;;;;;;;;;;5014715;28;20465;-40
2023/12/14 14:20:06;;;;;;;14.20;13.20;;;;;;;;;;5015024;28;20432;-41
2023/12/14 14:22:34;;;;;;;15.73;14.43;;;;;;;;;;5015012;28;20469;-39